Time;durP1;ratioP1;P1;durP2;ratioP2;P2;SDS_P1;SDS_P2;PMS_P1;PMS_P2;Temp;Humidity;BMP_temperature;BMP_pressure;BME280_temperature;BME280_humidity;BME280_pressure;Samples;Min_cycle;Max_cycle;Signal;HPM_P1;HPM_P2
2022/03/23 00:01:37;;;;;;;3.38;2.50;;;24.30;28.00;;;;;;5094203;28;20370;-64
2022/03/23 00:04:03;;;;;;;2.80;2.40;;;24.40;28.10;;;;;;5094961;28;20386;-65
2022/03/23 00:06:29;;;;;;;2.97;2.47;;;24.30;27.90;;;;;;5095016;28;20385;-63
2022/03/23 00:08:54;;;;;;;2.80;2.45;;;24.30;27.80;;;;;;5093431;28;20413;-65
2022/03/23 00:11:20;;;;;;;2.70;2.37;;;24.30;27.80;;;;;;5094636;28;20428;-65
2022/03/23 00:13:46;;;;;;;2.95;2.30;;;24.30;27.90;;;;;;5094549;28;20738;-65
2022/03/23 00:16:12;;;;;;;2.85;2.40;;;24.30;28.00;;;;;;5094531;28;20408;-65
2022/03/23 00:18:38;;;;;;;2.63;2.40;;;24.30;28.00;;;;;;5093207;28;20746;-64
2022/03/23 00:21:04;;;;;;;2.60;2.20;;;24.30;28.00;;;;;;5094583;28;20451;-65
2022/03/23 00:23:30;;;;;;;2.63;2.10;;;24.30;28.00;;;;;;5094108;28;20781;-64
2022/03/23 00:25:55;;;;;;;2.53;1.93;;;24.30;28.00;;;;;;5093208;28;20450;-65
2022/03/23 00:28:21;;;;;;;2.72;2.10;;;24.30;28.00;;;;;;5094175;28;20505;-64
2022/03/23 00:30:50;;;;;;;3.07;2.13;;;24.30;28.10;;;;;;5094398;28;20382;-63
2022/03/23 00:33:16;;;;;;;2.72;1.90;;;24.20;28.00;;;;;;5093084;28;20886;-63
2022/03/23 00:35:43;;;;;;;2.90;2.20;;;24.20;28.00;;;;;;5093904;28;20386;-64
2022/03/23 00:38:08;;;;;;;2.22;1.98;;;24.20;28.00;;;;;;5092995;28;20489;-66
2022/03/23 00:40:34;;;;;;;2.50;1.83;;;24.20;28.00;;;;;;5092925;28;20490;-66
2022/03/23 00:43:01;;;;;;;2.83;1.90;;;24.20;28.00;;;;;;5094161;28;20393;-64
2022/03/23 00:45:30;;;;;;;2.20;1.85;;;24.20;28.00;;;;;;5092623;28;20394;-64
2022/03/23 00:47:59;;;;;;;2.53;1.77;;;24.20;28.00;;;;;;5093195;28;20406;-63
2022/03/23 00:50:25;;;;;;;2.67;1.90;;;24.20;28.00;;;;;;5093677;28;20469;-63
2022/03/23 00:52:51;;;;;;;2.40;1.90;;;24.20;28.10;;;;;;5094036;28;20382;-63
2022/03/23 00:55:18;;;;;;;2.23;1.80;;;24.10;28.00;;;;;;5093881;28;20413;-65
2022/03/23 00:57:44;;;;;;;2.30;1.70;;;24.20;28.00;;;;;;5093449;28;20880;-65
2022/03/23 01:00:12;;;;;;;2.58;1.83;;;24.10;28.00;;;;;;5093812;28;20935;-63
2022/03/23 01:02:41;;;;;;;1.90;1.58;;;24.10;28.10;;;;;;5093905;28;20797;-65
2022/03/23 01:05:08;;;;;;;2.03;1.80;;;24.10;28.00;;;;;;5093773;28;20395;-65
2022/03/23 01:07:34;;;;;;;2.40;1.70;;;24.10;28.00;;;;;;5093208;28;20386;-65
2022/03/23 01:10:00;;;;;;;2.17;1.83;;;24.10;28.00;;;;;;5093577;28;20471;-65
2022/03/23 01:12:26;;;;;;;1.95;1.60;;;24.10;28.00;;;;;;5093693;28;20411;-65
2022/03/23 01:14:52;;;;;;;2.22;1.65;;;24.20;28.00;;;;;;5093632;28;20443;-65
2022/03/23 01:17:17;;;;;;;1.87;1.43;;;24.10;28.00;;;;;;5093649;28;20386;-65
2022/03/23 01:19:44;;;;;;;1.80;1.60;;;24.10;28.00;;;;;;5093124;28;20396;-66
2022/03/23 01:22:09;;;;;;;2.17;1.60;;;24.10;28.00;;;;;;5093440;28;20425;-65
2022/03/23 01:24:35;;;;;;;2.35;1.35;;;24.10;28.00;;;;;;5093257;28;20420;-63
2022/03/23 01:27:03;;;;;;;2.17;1.60;;;24.10;27.90;;;;;;5092000;28;20402;-65
2022/03/23 01:29:29;;;;;;;2.27;1.70;;;24.00;28.00;;;;;;5092987;28;20889;-63
2022/03/23 01:31:55;;;;;;;2.00;1.50;;;24.00;28.00;;;;;;5093039;28;20370;-66
2022/03/23 01:34:20;;;;;;;1.98;1.40;;;24.00;28.00;;;;;;5093195;28;20421;-65
2022/03/23 01:36:46;;;;;;;1.90;1.33;;;24.00;28.00;;;;;;5093129;28;20381;-66
2022/03/23 01:39:12;;;;;;;2.00;1.50;;;24.10;28.10;;;;;;5092870;28;20870;-64
2022/03/23 01:41:39;;;;;;;2.27;1.50;;;24.00;28.00;;;;;;5092520;28;20417;-66
2022/03/23 01:44:17;;;;;;;1.80;1.20;;;23.90;28.00;;;;;;5092910;28;20402;-66
2022/03/23 01:47:12;;;;;;;1.80;1.20;;;24.00;28.00;;;;;;5092847;28;20409;-64
2022/03/23 01:49:45;;;;;;;2.25;1.20;;;24.00;28.00;;;;;;5091048;28;20414;-66
2022/03/23 01:52:13;;;;;;;1.92;1.60;;;24.00;28.00;;;;;;5092945;28;20370;-65
2022/03/23 01:54:40;;;;;;;1.98;1.42;;;24.00;28.00;;;;;;5092821;28;20386;-66
2022/03/23 01:57:09;;;;;;;2.25;1.30;;;24.00;28.00;;;;;;5092664;28;20379;-65
2022/03/23 01:59:35;;;;;;;1.55;1.13;;;23.90;28.00;;;;;;5092142;28;20394;-63
2022/03/23 02:02:01;;;;;;;2.70;1.25;;;24.00;28.00;;;;;;5092707;28;20393;-66
2022/03/23 02:04:27;;;;;;;1.77;1.17;;;23.90;28.00;;;;;;5092577;28;20870;-65
2022/03/23 02:06:53;;;;;;;1.90;1.30;;;23.90;28.00;;;;;;5092559;28;20378;-66
2022/03/23 02:09:19;;;;;;;1.88;1.33;;;23.90;28.00;;;;;;5092596;28;20968;-66
2022/03/23 02:11:46;;;;;;;1.65;1.40;;;23.90;28.00;;;;;;5091966;28;20803;-66
2022/03/23 02:14:12;;;;;;;1.92;1.27;;;23.90;28.10;;;;;;5091184;28;20386;-63
2022/03/23 02:16:50;;;;;;;1.33;1.10;;;23.80;28.00;;;;;;5092503;28;20382;-65
2022/03/23 02:19:17;;;;;;;1.63;1.33;;;23.80;28.00;;;;;;5092399;28;20409;-65
2022/03/23 02:21:46;;;;;;;1.50;1.15;;;23.90;28.10;;;;;;5091777;28;20473;-64
2022/03/23 02:24:14;;;;;;;1.95;1.25;;;23.90;28.00;;;;;;5092243;28;20935;-65
2022/03/23 02:26:41;;;;;;;1.50;1.10;;;23.90;28.10;;;;;;5092303;28;20874;-66
2022/03/23 02:29:07;;;;;;;2.40;1.50;;;23.90;28.10;;;;;;5092170;28;20420;-66
2022/03/23 02:31:33;;;;;;;1.50;1.05;;;23.80;28.00;;;;;;5092015;28;20400;-66
2022/03/23 02:33:59;;;;;;;1.50;1.20;;;23.80;28.00;;;;;;5091923;28;20385;-64
2022/03/23 02:36:25;;;;;;;1.70;1.27;;;23.80;28.00;;;;;;5091974;28;20381;-65
2022/03/23 02:38:50;;;;;;;2.20;1.23;;;23.80;28.10;;;;;;5092077;28;20770;-64
2022/03/23 02:41:17;;;;;;;1.52;1.20;;;23.80;28.10;;;;;;5091527;28;20746;-65
2022/03/23 02:43:42;;;;;;;1.42;1.20;;;23.80;28.00;;;;;;5091141;28;20391;-66
2022/03/23 02:46:16;;;;;;;1.80;1.30;;;23.80;28.00;;;;;;5091628;28;20394;-64
2022/03/23 02:48:42;;;;;;;1.85;1.15;;;23.80;28.10;;;;;;5091954;28;20421;-64
2022/03/23 02:51:08;;;;;;;1.30;1.00;;;23.80;28.00;;;;;;5091826;28;20382;-65
2022/03/23 03:02:18;;;;;;;1.65;1.30;;;23.80;28.10;;;;;;5091972;28;20385;-65
2022/03/23 03:04:44;;;;;;;2.03;1.40;;;23.70;28.10;;;;;;5091609;28;20443;-66
2022/03/23 03:07:09;;;;;;;2.03;1.20;;;23.70;28.10;;;;;;5091663;28;20435;-64
2022/03/23 03:09:35;;;;;;;1.43;1.10;;;23.70;28.10;;;;;;5091296;28;20410;-64
2022/03/23 03:12:02;;;;;;;2.42;1.33;;;23.70;28.10;;;;;;5090785;28;20386;-63
2022/03/23 03:14:29;;;;;;;1.40;1.00;;;23.70;28.10;;;;;;5091435;28;20406;-66
2022/03/23 03:16:55;;;;;;;1.30;1.10;;;23.70;28.10;;;;;;5091434;28;20378;-66
2022/03/23 03:19:21;;;;;;;1.75;1.20;;;23.70;28.10;;;;;;5091573;28;20432;-66
2022/03/23 03:21:46;;;;;;;1.30;1.00;;;23.70;28.20;;;;;;5091009;28;20473;-66
2022/03/23 03:24:12;;;;;;;1.60;1.10;;;23.60;28.10;;;;;;5091565;28;20409;-66
2022/03/23 03:26:38;;;;;;;1.77;1.20;;;23.70;28.10;;;;;;5091559;28;20374;-66
2022/03/23 03:29:04;;;;;;;1.83;1.10;;;23.70;28.10;;;;;;5091319;28;20410;-65
2022/03/23 03:31:31;;;;;;;1.33;1.02;;;23.60;28.10;;;;;;5091267;28;20466;-63
2022/03/23 03:33:57;;;;;;;1.52;1.10;;;23.70;28.20;;;;;;5091055;28;20386;-65
2022/03/23 03:36:23;;;;;;;2.40;1.20;;;23.60;28.10;;;;;;5091382;28;20870;-65
2022/03/23 03:38:49;;;;;;;1.70;1.20;;;23.60;28.10;;;;;;5091158;28;20422;-64
2022/03/23 03:41:14;;;;;;;1.52;1.10;;;23.60;28.10;;;;;;5090434;28;20393;-63
2022/03/23 03:43:40;;;;;;;1.30;1.00;;;23.60;28.10;;;;;;5090900;28;20859;-64
2022/03/23 03:46:07;;;;;;;1.80;1.20;;;23.60;28.10;;;;;;5091176;28;20796;-66
2022/03/23 03:48:33;;;;;;;2.10;1.10;;;23.60;28.10;;;;;;5091268;28;20512;-63
2022/03/23 03:51:00;;;;;;;1.60;1.10;;;23.70;28.40;;;;;;5091169;28;20461;-63
2022/03/23 03:53:26;;;;;;;1.35;1.10;;;23.60;28.10;;;;;;5091336;28;20386;-64
2022/03/23 03:55:52;;;;;;;1.75;1.10;;;23.60;28.10;;;;;;5090599;28;20429;-66
2022/03/23 03:58:18;;;;;;;1.48;1.10;;;23.60;28.10;;;;;;5090983;28;20411;-65
2022/03/23 04:00:44;;;;;;;1.60;1.00;;;23.60;28.10;;;;;;5091189;28;20382;-64
2022/03/23 04:03:12;;;;;;;1.30;1.02;;;23.60;28.10;;;;;;5091141;28;20943;-66
2022/03/23 04:05:38;;;;;;;1.33;1.08;;;23.60;28.00;;;;;;5089726;28;20480;-66
2022/03/23 04:08:04;;;;;;;1.80;0.90;;;23.50;28.00;;;;;;5089541;28;20493;-63
2022/03/23 04:10:30;;;;;;;2.60;1.00;;;23.50;28.50;;;;;;5089730;28;20394;-64
2022/03/23 04:12:56;;;;;;;2.20;1.10;;;23.40;28.60;;;;;;5090300;28;20469;-65
2022/03/23 04:15:24;;;;;;;2.40;0.95;;;23.40;28.50;;;;;;5090609;28;20398;-62
2022/03/23 04:17:49;;;;;;;2.20;1.10;;;23.50;28.40;;;;;;5090354;28;20385;-65
2022/03/23 04:20:15;;;;;;;3.60;1.30;;;23.60;28.60;;;;;;5091058;28;20390;-63
2022/03/23 04:22:41;;;;;;;2.92;1.10;;;23.50;29.30;;;;;;5090479;28;20392;-65
2022/03/23 04:25:12;;;;;;;3.10;1.13;;;23.50;29.40;;;;;;5093232;28;20486;-65
2022/03/23 04:27:48;;;;;;;3.40;1.10;;;23.50;29.50;;;;;;5093108;28;20873;-64
2022/03/23 04:30:16;;;;;;;2.10;1.05;;;23.50;29.70;;;;;;5095821;28;20489;-65
2022/03/23 04:32:42;;;;;;;2.08;1.20;;;23.50;29.80;;;;;;5094589;28;20441;-66
2022/03/23 04:35:08;;;;;;;2.30;1.20;;;23.50;29.30;;;;;;5094059;28;20892;-66
2022/03/23 04:37:34;;;;;;;2.78;1.02;;;23.50;29.50;;;;;;5094224;28;20935;-63
2022/03/23 04:40:00;;;;;;;1.97;1.03;;;23.50;29.10;;;;;;5094042;28;20386;-65
2022/03/23 04:42:25;;;;;;;2.03;1.10;;;23.50;29.20;;;;;;5094276;28;20386;-66
2022/03/23 04:44:51;;;;;;;2.08;1.00;;;23.50;29.20;;;;;;5095135;28;20398;-66
2022/03/23 04:47:17;;;;;;;3.50;1.00;;;23.50;29.00;;;;;;5095222;28;20406;-66
2022/03/23 04:49:42;;;;;;;1.83;1.10;;;23.50;28.90;;;;;;5092533;28;20445;-64
2022/03/23 04:52:08;;;;;;;1.90;0.90;;;23.50;28.90;;;;;;5094090;28;20472;-64
2022/03/23 04:54:34;;;;;;;3.33;1.10;;;23.50;29.40;;;;;;5094591;28;20432;-66
2022/03/23 04:56:59;;;;;;;2.80;1.00;;;23.50;29.30;;;;;;5094171;28;20386;-63
2022/03/23 04:59:26;;;;;;;2.13;1.30;;;23.50;29.80;;;;;;5093841;28;20808;-63
2022/03/23 05:01:52;;;;;;;2.83;1.10;;;23.50;29.20;;;;;;5093453;28;20420;-67
2022/03/23 05:04:18;;;;;;;1.60;1.10;;;23.50;29.10;;;;;;5093787;28;20422;-66
2022/03/23 05:06:43;;;;;;;2.00;1.00;;;23.50;29.00;;;;;;5093786;28;20409;-66
2022/03/23 05:09:09;;;;;;;1.80;1.17;;;23.50;28.90;;;;;;5092286;28;21063;-63
2022/03/23 05:11:34;;;;;;;1.90;1.10;;;23.40;28.80;;;;;;5093505;28;20394;-64
2022/03/23 05:14:00;;;;;;;3.00;1.00;;;23.50;29.00;;;;;;5093395;28;20414;-63
2022/03/23 05:16:26;;;;;;;3.17;1.10;;;23.40;29.20;;;;;;5093569;28;20374;-63
2022/03/23 05:18:51;;;;;;;3.60;1.20;;;23.40;29.10;;;;;;5093379;28;20780;-66
2022/03/23 05:21:17;;;;;;;3.58;1.17;;;23.40;29.10;;;;;;5093448;28;20489;-63
2022/03/23 05:23:44;;;;;;;3.22;1.50;;;23.40;28.70;;;;;;5092940;28;20386;-63
2022/03/23 05:26:09;;;;;;;2.83;1.30;;;23.40;29.00;;;;;;5092708;28;20390;-63
2022/03/23 05:28:35;;;;;;;4.37;1.10;;;23.40;29.40;;;;;;5092620;28;20402;-66
2022/03/23 05:31:01;;;;;;;4.75;1.17;;;23.40;29.10;;;;;;5094905;28;20399;-63
2022/03/23 05:33:27;;;;;;;5.40;1.40;;;23.40;28.70;;;;;;5096758;28;20943;-63
2022/03/23 05:35:52;;;;;;;2.13;1.40;;;23.40;28.70;;;;;;5105185;28;20397;-63
2022/03/23 05:38:18;;;;;;;2.47;1.20;;;23.40;28.90;;;;;;5103731;28;20384;-63
2022/03/23 05:40:43;;;;;;;2.38;1.20;;;23.40;28.70;;;;;;5097628;28;20436;-65
2022/03/23 05:43:09;;;;;;;3.20;1.15;;;23.40;28.60;;;;;;5093079;28;20378;-63
2022/03/23 05:45:35;;;;;;;3.03;1.40;;;23.40;29.10;;;;;;5093878;28;20404;-63
2022/03/23 05:48:01;;;;;;;3.38;1.27;;;23.40;28.80;;;;;;5098540;28;20406;-63
2022/03/23 05:50:27;;;;;;;3.93;1.20;;;23.40;28.70;;;;;;5106741;28;20744;-63
2022/03/23 05:52:53;;;;;;;4.75;1.20;;;23.40;29.10;;;;;;5104436;28;20422;-63
2022/03/23 05:55:18;;;;;;;3.27;1.00;;;23.40;28.60;;;;;;5105996;28;20799;-63
2022/03/23 05:57:44;;;;;;;2.20;1.00;;;23.40;28.60;;;;;;5112913;28;20503;-64
2022/03/23 06:00:10;;;;;;;3.37;1.27;;;23.40;28.70;;;;;;5112916;28;20384;-64
2022/03/23 06:02:36;;;;;;;5.57;1.30;;;23.40;28.40;;;;;;5112797;28;20380;-64
2022/03/23 06:05:02;;;;;;;2.80;1.20;;;23.40;28.30;;;;;;5112635;28;20379;-63
2022/03/23 06:07:28;;;;;;;3.30;1.20;;;23.40;28.20;;;;;;5112581;28;20864;-63
2022/03/23 06:09:54;;;;;;;3.27;1.10;;;23.40;28.20;;;;;;5112410;28;20415;-63
2022/03/23 06:12:21;;;;;;;2.47;1.20;;;23.40;28.10;;;;;;5112687;28;20384;-63
2022/03/23 06:14:47;;;;;;;2.15;1.48;;;23.30;28.00;;;;;;5112841;28;20436;-62
2022/03/23 06:17:12;;;;;;;3.87;1.50;;;23.30;28.00;;;;;;5096844;28;21074;-66
2022/03/23 06:19:38;;;;;;;2.65;1.42;;;23.30;27.90;;;;;;5091750;28;20382;-63
2022/03/23 06:22:05;;;;;;;4.28;1.65;;;23.20;27.90;;;;;;5090715;28;20397;-66
2022/03/23 06:24:31;;;;;;;3.00;1.55;;;23.20;28.10;;;;;;5089548;28;20471;-63
2022/03/23 06:26:57;;;;;;;2.20;1.63;;;23.30;28.30;;;;;;5091109;28;20431;-66
2022/03/23 06:29:23;;;;;;;3.22;1.67;;;23.30;28.70;;;;;;5089542;28;20509;-65
2022/03/23 06:31:48;;;;;;;5.07;1.30;;;23.30;28.90;;;;;;5090680;28;20401;-62
2022/03/23 06:34:14;;;;;;;2.65;1.65;;;23.30;28.80;;;;;;5091078;28;20394;-64
2022/03/23 06:36:40;;;;;;;4.15;1.20;;;23.30;28.70;;;;;;5089910;28;20390;-66
2022/03/23 06:39:06;;;;;;;2.38;1.48;;;23.30;28.60;;;;;;5088840;28;20378;-63
2022/03/23 06:41:32;;;;;;;2.65;1.48;;;23.30;28.70;;;;;;5090638;28;20402;-63
2022/03/23 06:43:58;;;;;;;3.80;1.70;;;23.30;28.60;;;;;;5089043;28;20390;-62
2022/03/23 06:46:24;;;;;;;3.47;1.23;;;23.30;28.90;;;;;;5085920;28;20399;-63
2022/03/23 06:48:51;;;;;;;2.20;1.35;;;23.30;28.90;;;;;;5089204;28;20496;-66
2022/03/23 06:51:16;;;;;;;3.20;1.23;;;23.40;28.90;;;;;;5090995;28;20410;-63
2022/03/23 06:53:42;;;;;;;2.15;1.20;;;23.40;28.70;;;;;;5090184;28;20491;-66
2022/03/23 06:56:09;;;;;;;2.88;1.30;;;23.40;28.30;;;;;;5078140;28;20403;-66
2022/03/23 06:58:35;;;;;;;1.80;1.15;;;23.30;28.70;;;;;;5070987;28;20392;-65
2022/03/23 07:01:00;;;;;;;2.72;1.42;;;23.30;28.10;;;;;;5071135;28;20396;-67
2022/03/23 07:03:27;;;;;;;2.70;1.17;;;23.30;28.10;;;;;;5071409;28;20887;-67
2022/03/23 07:05:52;;;;;;;1.83;1.20;;;23.30;28.00;;;;;;5061008;28;20474;-62
2022/03/23 07:11:04;;;;;;;2.30;1.20;;;23.40;28.00;;;;;;5071072;28;20390;-62
2022/03/23 07:13:30;;;;;;;2.75;1.48;;;23.40;27.90;;;;;;5070864;28;20414;-68
2022/03/23 07:15:56;;;;;;;1.92;1.20;;;23.40;27.90;;;;;;5069946;28;21334;-63
2022/03/23 07:18:21;;;;;;;1.98;1.33;;;23.40;27.80;;;;;;5070783;28;20387;-63
2022/03/23 07:20:47;;;;;;;2.00;1.10;;;23.50;27.80;;;;;;5070769;28;20737;-61
2022/03/23 07:23:13;;;;;;;1.70;1.20;;;23.50;27.70;;;;;;5070558;28;20748;-63
2022/03/23 07:25:38;;;;;;;1.80;1.20;;;23.50;27.70;;;;;;5069528;28;20963;-63
2022/03/23 07:28:04;;;;;;;2.30;1.50;;;23.50;27.60;;;;;;5070248;28;20388;-63
2022/03/23 07:30:33;;;;;;;2.53;1.08;;;23.60;27.60;;;;;;5070869;28;20478;-62
2022/03/23 07:33:01;;;;;;;2.92;1.17;;;23.50;27.60;;;;;;5070015;28;20495;-67
2022/03/23 07:35:26;;;;;;;2.70;1.00;;;23.60;27.60;;;;;;5070905;28;20392;-64
2022/03/23 07:37:52;;;;;;;1.85;1.10;;;23.60;27.60;;;;;;5070168;28;20741;-63
2022/03/23 07:40:18;;;;;;;2.10;1.10;;;23.60;27.60;;;;;;5070973;28;20434;-67
2022/03/23 07:42:44;;;;;;;1.92;1.20;;;23.60;27.50;;;;;;5072180;28;20486;-63
2022/03/23 07:45:10;;;;;;;1.83;1.10;;;23.70;27.50;;;;;;5090902;28;20813;-63
2022/03/23 07:47:36;;;;;;;1.80;1.20;;;23.70;27.50;;;;;;5082333;28;20440;-66
2022/03/23 07:50:02;;;;;;;1.80;0.90;;;23.70;27.50;;;;;;5070398;28;20440;-62
2022/03/23 07:52:28;;;;;;;1.85;1.00;;;23.70;27.60;;;;;;5071022;28;20859;-66
2022/03/23 07:54:53;;;;;;;1.90;1.20;;;23.70;28.10;;;;;;5071034;28;20392;-63
2022/03/23 07:57:19;;;;;;;2.80;0.93;;;23.70;28.20;;;;;;5071219;28;20375;-63
2022/03/23 07:59:46;;;;;;;3.00;1.17;;;23.70;28.10;;;;;;5074637;28;20486;-66
2022/03/23 08:02:12;;;;;;;1.88;1.10;;;23.80;28.00;;;;;;5074485;28;20399;-64
2022/03/23 08:04:38;;;;;;;1.92;1.23;;;23.80;27.90;;;;;;5074682;28;20391;-62
2022/03/23 08:07:04;;;;;;;1.67;0.90;;;23.80;27.70;;;;;;5074567;28;20394;-62
2022/03/23 08:09:31;;;;;;;2.00;1.00;;;23.80;28.00;;;;;;5074525;28;20814;-62
2022/03/23 08:11:58;;;;;;;1.92;1.00;;;23.90;28.10;;;;;;5074060;28;20384;-62
2022/03/23 08:14:24;;;;;;;2.97;1.02;;;23.90;28.10;;;;;;5073853;28;20410;-63
2022/03/23 08:16:52;;;;;;;2.08;1.10;;;23.90;27.80;;;;;;5074112;28;20790;-63
2022/03/23 08:19:22;;;;;;;2.42;0.90;;;23.90;27.80;;;;;;5073177;28;20392;-67
2022/03/23 08:21:48;;;;;;;1.73;1.00;;;23.90;27.90;;;;;;5073997;28;20390;-63
2022/03/23 08:24:14;;;;;;;1.70;0.90;;;24.00;27.80;;;;;;5073980;28;20452;-67
2022/03/23 08:26:40;;;;;;;1.63;0.90;;;24.00;27.80;;;;;;5074235;28;20384;-65
2022/03/23 08:29:06;;;;;;;2.13;1.00;;;24.00;27.80;;;;;;5074144;28;20808;-67
2022/03/23 08:31:31;;;;;;;1.92;0.95;;;24.00;27.70;;;;;;5074175;28;20441;-62
2022/03/23 08:33:57;;;;;;;2.23;0.83;;;24.10;27.60;;;;;;5073588;28;20977;-67
2022/03/23 08:36:23;;;;;;;1.75;0.90;;;24.20;27.50;;;;;;5072848;28;20426;-63
2022/03/23 08:38:49;;;;;;;2.97;0.90;;;24.20;27.40;;;;;;5073817;28;20399;-63
2022/03/23 08:41:14;;;;;;;3.47;0.90;;;24.10;27.20;;;;;;5074045;28;20394;-63
2022/03/23 08:43:41;;;;;;;1.23;0.90;;;24.10;27.40;;;;;;5073747;28;20380;-64
2022/03/23 08:46:07;;;;;;;1.58;0.80;;;24.20;27.30;;;;;;5073185;28;21080;-63
2022/03/23 08:48:34;;;;;;;1.50;1.00;;;24.20;27.30;;;;;;5073976;28;20433;-65
2022/03/23 08:51:00;;;;;;;1.40;1.00;;;24.20;27.30;;;;;;5073731;28;20391;-63
2022/03/23 08:53:26;;;;;;;1.40;0.80;;;24.30;27.20;;;;;;5073863;28;20937;-63
2022/03/23 08:55:52;;;;;;;1.60;0.90;;;24.30;27.20;;;;;;5073460;28;20427;-63
2022/03/23 08:58:17;;;;;;;1.33;0.88;;;24.30;27.10;;;;;;5073476;28;20422;-63
2022/03/23 09:00:43;;;;;;;1.27;0.80;;;24.30;27.10;;;;;;5073586;28;20453;-62
2022/03/23 09:03:09;;;;;;;1.47;0.80;;;24.30;27.10;;;;;;5073754;28;20388;-63
2022/03/23 09:05:34;;;;;;;1.40;1.05;;;24.30;27.10;;;;;;5073565;28;20900;-63
2022/03/23 09:08:01;;;;;;;1.10;0.60;;;24.30;27.00;;;;;;5072893;28;20380;-63
2022/03/23 09:10:27;;;;;;;1.20;0.80;;;24.40;27.00;;;;;;5072657;28;20431;-63
2022/03/23 09:12:53;;;;;;;1.48;0.70;;;24.40;27.00;;;;;;5073386;28;20392;-64
2022/03/23 09:15:19;;;;;;;1.15;0.75;;;24.40;27.00;;;;;;5073467;28;20391;-65
2022/03/23 09:17:46;;;;;;;1.60;1.03;;;24.30;26.90;;;;;;5073330;28;20428;-63
2022/03/23 09:20:12;;;;;;;1.17;0.82;;;24.40;26.90;;;;;;5072840;28;20467;-64
2022/03/23 09:22:39;;;;;;;1.67;0.85;;;24.40;26.90;;;;;;5073335;28;20376;-63
2022/03/23 09:25:10;;;;;;;1.50;0.80;;;24.40;26.90;;;;;;5073204;28;20386;-63
2022/03/23 09:27:38;;;;;;;1.30;0.70;;;24.40;27.40;;;;;;5072052;28;20391;-64
2022/03/23 09:30:05;;;;;;;1.25;0.80;;;24.40;26.90;;;;;;5072548;28;20454;-62
2022/03/23 09:32:31;;;;;;;1.20;0.90;;;24.30;26.80;;;;;;5073117;28;21035;-63
2022/03/23 09:34:57;;;;;;;1.27;1.00;;;24.30;26.80;;;;;;5073044;28;20414;-63
2022/03/23 09:40:08;;;;;;;1.20;0.80;;;24.30;26.70;;;;;;5072772;28;20383;-63
2022/03/23 09:42:34;;;;;;;1.20;0.73;;;24.30;26.70;;;;;;5072953;28;20416;-65
2022/03/23 09:45:00;;;;;;;1.30;0.77;;;24.30;26.80;;;;;;5071969;28;20392;-63
2022/03/23 09:47:26;;;;;;;1.50;0.90;;;24.30;26.90;;;;;;5072462;28;20406;-62
2022/03/23 09:49:52;;;;;;;1.70;0.80;;;24.20;26.90;;;;;;5072290;28;20900;-64
2022/03/23 09:52:17;;;;;;;1.30;0.80;;;24.20;26.90;;;;;;5072449;28;20393;-63
2022/03/23 09:54:45;;;;;;;1.23;0.77;;;24.20;26.90;;;;;;5071346;28;20442;-63
2022/03/23 09:57:12;;;;;;;1.20;0.80;;;24.20;26.90;;;;;;5072543;28;20395;-63
2022/03/23 09:59:37;;;;;;;2.30;0.90;;;24.20;26.90;;;;;;5072536;28;20457;-65
2022/03/23 10:02:03;;;;;;;1.45;1.00;;;24.20;26.90;;;;;;5072013;28;20875;-65
2022/03/23 10:04:47;;;;;;;2.25;0.98;;;24.20;26.90;;;;;;5072446;28;20876;-63
2022/03/23 10:07:14;;;;;;;1.98;1.10;;;24.20;26.80;;;;;;5072362;28;20387;-64
2022/03/23 10:10:04;;;;;;;1.73;0.90;;;24.20;26.90;;;;;;5072192;28;20407;-62
2022/03/23 10:13:07;;;;;;;1.23;0.80;;;24.20;26.80;;;;;;5072305;28;20907;-63
2022/03/23 10:16:05;;;;;;;1.30;0.90;;;24.20;26.80;;;;;;5072200;28;20392;-64
2022/03/23 10:18:50;;;;;;;1.00;0.80;;;24.20;26.90;;;;;;5071017;28;20400;-63
2022/03/23 10:21:17;;;;;;;1.55;0.90;;;24.20;26.90;;;;;;5072146;28;20387;-63
2022/03/23 10:24:11;;;;;;;1.50;0.90;;;24.10;26.90;;;;;;5072166;28;20387;-65
2022/03/23 10:26:38;;;;;;;2.03;0.80;;;24.20;27.00;;;;;;5069827;28;20407;-63
2022/03/23 10:29:11;;;;;;;1.33;0.80;;;24.20;27.00;;;;;;5069369;28;20420;-67
2022/03/23 10:31:37;;;;;;;2.45;0.70;;;24.20;27.10;;;;;;5071156;28;20384;-63
2022/03/23 10:34:08;;;;;;;3.15;1.00;;;24.20;27.20;;;;;;5070851;28;20438;-66
2022/03/23 10:36:40;;;;;;;2.13;1.00;;;24.20;27.20;;;;;;5071561;28;20387;-63
2022/03/23 10:39:13;;;;;;;3.03;1.00;;;24.20;27.30;;;;;;5071171;28;20391;-68
2022/03/23 10:41:39;;;;;;;1.50;0.90;;;24.30;27.90;;;;;;5071962;28;20871;-66
2022/03/23 10:44:18;;;;;;;2.50;1.08;;;24.30;27.40;;;;;;5070448;28;20436;-63
2022/03/23 10:46:44;;;;;;;1.60;0.80;;;24.30;27.30;;;;;;5071135;28;20763;-62
2022/03/23 10:49:13;;;;;;;2.42;0.93;;;24.30;27.30;;;;;;5071157;28;20403;-62
2022/03/23 10:51:42;;;;;;;2.17;0.83;;;24.30;27.30;;;;;;5070354;28;20501;-64
2022/03/23 10:54:13;;;;;;;1.88;0.90;;;24.30;27.30;;;;;;5070386;28;20852;-67
2022/03/23 10:56:39;;;;;;;2.65;1.05;;;24.30;27.40;;;;;;5070834;28;20470;-66
2022/03/23 10:59:26;;;;;;;1.60;1.00;;;24.30;27.40;;;;;;5070426;28;20483;-67
2022/03/23 11:01:57;;;;;;;1.60;1.00;;;24.40;27.40;;;;;;5070934;28;20400;-67
2022/03/23 11:04:24;;;;;;;2.60;0.90;;;24.30;27.40;;;;;;5070550;28;20411;-66
2022/03/23 11:06:50;;;;;;;1.73;0.98;;;24.30;27.50;;;;;;5070916;28;20387;-67
2022/03/23 11:17:48;;;;;;;1.35;0.70;;;24.30;27.40;;;;;;5070125;28;20421;-67
2022/03/23 11:20:16;;;;;;;1.52;0.80;;;24.30;27.50;;;;;;5070158;28;20779;-67
2022/03/23 11:22:42;;;;;;;1.23;0.70;;;24.30;27.40;;;;;;5070722;28;20392;-66
2022/03/23 11:25:07;;;;;;;1.30;0.77;;;24.30;27.50;;;;;;5070719;28;20395;-66
2022/03/23 11:27:36;;;;;;;1.27;0.82;;;24.30;27.40;;;;;;5070774;28;20400;-66
2022/03/23 11:30:03;;;;;;;1.45;0.70;;;24.30;27.50;;;;;;5069863;28;20419;-66
2022/03/23 11:32:38;;;;;;;1.43;0.83;;;24.30;27.40;;;;;;5071332;28;20391;-66
2022/03/23 11:35:07;;;;;;;1.38;0.73;;;24.30;27.40;;;;;;5075074;28;20487;-66
2022/03/23 11:37:38;;;;;;;1.67;0.80;;;24.30;27.40;;;;;;5075627;28;20905;-66
2022/03/23 11:40:04;;;;;;;1.80;0.90;;;24.30;27.50;;;;;;5089707;28;20446;-67
2022/03/23 11:42:31;;;;;;;2.50;0.80;;;24.20;27.60;;;;;;5074785;28;20391;-65
2022/03/23 11:44:58;;;;;;;1.90;0.95;;;24.30;27.50;;;;;;5074430;28;20391;-66
2022/03/23 11:47:38;;;;;;;1.88;0.88;;;24.30;27.50;;;;;;5074895;28;20403;-65
2022/03/23 11:50:16;;;;;;;1.38;0.80;;;24.40;27.50;;;;;;5074501;28;20422;-63
2022/03/23 11:53:01;;;;;;;2.65;0.90;;;24.40;27.40;;;;;;5075144;28;20391;-66
2022/03/23 11:55:39;;;;;;;2.60;0.85;;;24.40;27.30;;;;;;5074848;28;20868;-67
2022/03/23 11:58:22;;;;;;;3.60;0.90;;;24.40;27.40;;;;;;5074300;28;20779;-68
2022/03/23 12:00:53;;;;;;;2.00;0.80;;;24.30;27.40;;;;;;5073938;28;20478;-68
2022/03/23 12:03:40;;;;;;;2.97;0.90;;;24.30;27.40;;;;;;5074804;28;20379;-67
2022/03/23 12:06:18;;;;;;;2.58;0.80;;;24.40;27.40;;;;;;5074242;28;20392;-64
2022/03/23 12:08:49;;;;;;;2.27;1.00;;;24.40;27.40;;;;;;5074455;28;20519;-66
2022/03/23 12:11:43;;;;;;;2.50;0.75;;;24.40;27.40;;;;;;5074561;28;20380;-66
2022/03/23 12:14:32;;;;;;;2.28;0.85;;;24.40;27.30;;;;;;5073882;28;20470;-63
2022/03/23 12:17:01;;;;;;;1.67;0.75;;;24.40;27.30;;;;;;5072342;28;20877;-65
2022/03/23 12:19:28;;;;;;;2.72;0.90;;;24.40;27.30;;;;;;5072679;28;20449;-64
2022/03/23 12:22:07;;;;;;;1.33;0.70;;;24.40;27.30;;;;;;5074243;28;20927;-65
2022/03/23 12:24:52;;;;;;;3.40;0.77;;;24.40;27.30;;;;;;5074319;28;20425;-64
2022/03/23 12:27:45;;;;;;;1.52;0.85;;;24.40;27.30;;;;;;5074260;28;20868;-64
2022/03/23 12:30:38;;;;;;;1.60;0.73;;;24.40;27.30;;;;;;5072872;28;20480;-64
2022/03/23 12:33:11;;;;;;;2.60;0.90;;;24.40;27.30;;;;;;5068865;28;20425;-65
2022/03/23 12:35:37;;;;;;;3.10;0.80;;;24.40;27.30;;;;;;5074192;28;20493;-64
2022/03/23 12:38:15;;;;;;;2.25;0.90;;;24.40;27.30;;;;;;5067274;28;21785;-64
2022/03/23 12:40:43;;;;;;;2.05;0.85;;;24.40;27.40;;;;;;5073370;28;20384;-66
2022/03/23 12:43:09;;;;;;;2.05;0.77;;;24.40;27.30;;;;;;5073357;28;20398;-67
2022/03/23 12:45:39;;;;;;;1.88;0.88;;;24.40;27.30;;;;;;5071692;28;20876;-65
2022/03/23 12:59:17;;;;;;;2.85;0.80;;;24.50;25.10;;;;;;5058053;28;20446;-64
2022/03/23 13:01:44;;;;;;;1.80;0.68;;;24.40;25.80;;;;;;5053903;28;20447;-64
2022/03/23 13:04:40;;;;;;;2.50;0.70;;;24.50;26.10;;;;;;5052273;28;20409;-63
2022/03/23 13:07:44;;;;;;;1.60;0.80;;;24.60;26.10;;;;;;5050717;28;20386;-64
2022/03/23 13:10:13;;;;;;;1.90;0.70;;;24.60;26.30;;;;;;4981813;28;20427;-63
2022/03/23 13:12:40;;;;;;;1.27;0.60;;;24.60;26.30;;;;;;4988679;28;20390;-64
2022/03/23 13:15:14;;;;;;;1.50;0.70;;;24.70;26.30;;;;;;5021783;28;20585;-64
2022/03/23 13:17:42;;;;;;;1.35;0.90;;;24.60;26.40;;;;;;5049168;28;20389;-63
2022/03/23 13:20:10;;;;;;;2.60;0.60;;;24.70;26.50;;;;;;5052040;28;20396;-63
2022/03/23 13:22:38;;;;;;;1.55;0.63;;;24.70;27.10;;;;;;5051837;28;20476;-63
2022/03/23 13:25:09;;;;;;;2.58;0.82;;;24.80;26.50;;;;;;5052102;28;20461;-64
2022/03/23 13:27:37;;;;;;;1.70;0.70;;;24.80;26.50;;;;;;5051616;28;20402;-64